createdAt,value
2023-03-07T00:00:13.615Z,15.73
2023-03-07T00:02:41.954Z,19.63
2023-03-07T00:05:10.670Z,17.40
2023-03-07T00:07:38.948Z,17.25
2023-03-07T00:10:08.915Z,19.00
2023-03-07T00:12:38.570Z,19.90
2023-03-07T00:15:08.747Z,15.88
2023-03-07T00:17:37.547Z,15.02
2023-03-07T00:20:08.230Z,16.63
2023-03-07T00:22:36.772Z,15.05
2023-03-07T00:25:05.747Z,14.30
2023-03-07T00:27:35.028Z,15.75
2023-03-07T00:30:06.386Z,13.35
2023-03-07T00:32:34.644Z,12.13
2023-03-07T00:35:03.182Z,14.35
2023-03-07T00:37:31.569Z,15.38
2023-03-07T00:39:59.742Z,14.25
2023-03-07T00:42:27.910Z,13.15
2023-03-07T00:44:56.172Z,15.02
2023-03-07T00:47:25.787Z,12.27
2023-03-07T00:49:54.552Z,15.35
2023-03-07T00:52:22.792Z,17.30
2023-03-07T00:54:51.012Z,11.65
2023-03-07T00:57:19.494Z,13.23
2023-03-07T00:59:48.094Z,12.85
2023-03-07T01:02:16.405Z,13.65
2023-03-07T01:04:46.097Z,13.70
2023-03-07T01:07:14.539Z,14.75
2023-03-07T01:09:42.702Z,12.35
2023-03-07T01:12:11.448Z,13.05
2023-03-07T01:14:39.844Z,12.98
2023-03-07T01:17:07.955Z,11.13
2023-03-07T01:19:36.203Z,11.57
2023-03-07T01:22:05.980Z,13.13
2023-03-07T01:24:34.219Z,12.77
2023-03-07T01:27:02.496Z,13.73
2023-03-07T01:29:30.701Z,12.35
2023-03-07T01:31:59.358Z,13.13
2023-03-07T01:34:27.696Z,12.85
2023-03-07T01:36:55.937Z,12.35
2023-03-07T01:39:25.518Z,13.10
2023-03-07T01:42:00.614Z,13.35
2023-03-07T01:44:30.677Z,19.65
2023-03-07T01:47:00.505Z,14.35
2023-03-07T01:49:55.720Z,12.70
2023-03-07T01:52:30.947Z,13.50
2023-03-07T01:55:07.730Z,14.95
2023-03-07T01:57:40.425Z,14.05
2023-03-07T02:00:14.787Z,14.43
2023-03-07T02:02:48.583Z,16.20
2023-03-07T02:05:27.449Z,15.70
2023-03-07T02:07:59.883Z,14.35
2023-03-07T02:10:33.775Z,14.68
2023-03-07T02:13:02.326Z,13.75
2023-03-07T02:15:30.808Z,15.13
2023-03-07T02:17:59.778Z,15.25
2023-03-07T02:20:41.137Z,16.02
2023-03-07T02:23:19.757Z,16.52
2023-03-07T02:25:58.094Z,17.33
2023-03-07T02:28:29.342Z,20.67
2023-03-07T02:31:00.208Z,18.00
2023-03-07T02:33:32.981Z,15.23
2023-03-07T02:36:11.061Z,14.80
2023-03-07T02:38:46.904Z,15.75
2023-03-07T02:41:19.172Z,16.60
2023-03-07T02:43:48.813Z,14.15
2023-03-07T02:46:17.223Z,14.38
2023-03-07T02:48:45.328Z,15.68
2023-03-07T02:51:14.706Z,15.77
2023-03-07T02:53:45.815Z,15.60
2023-03-07T02:56:14.834Z,17.00
2023-03-07T02:58:42.978Z,15.32
2023-03-07T03:01:12.844Z,19.92
2023-03-07T03:03:41.002Z,15.57
2023-03-07T03:06:10.096Z,19.40
2023-03-07T03:08:38.320Z,16.38
2023-03-07T03:11:06.675Z,15.00
2023-03-07T03:13:37.671Z,15.98
2023-03-07T03:16:08.701Z,15.80
2023-03-07T03:18:38.679Z,17.27
2023-03-07T03:21:10.425Z,17.63
2023-03-07T03:23:39.442Z,21.02
2023-03-07T03:26:11.425Z,16.58
2023-03-07T03:28:40.453Z,15.75
2023-03-07T03:31:11.807Z,19.77
2023-03-07T03:36:16.191Z,15.10
2023-03-07T03:38:46.943Z,16.52
2023-03-07T03:41:16.881Z,16.02
2023-03-07T03:43:46.373Z,18.77
2023-03-07T03:46:16.642Z,17.40
2023-03-07T03:48:47.002Z,18.48
2023-03-07T03:51:15.538Z,19.65
2023-03-07T03:53:43.953Z,18.30
2023-03-07T03:56:14.998Z,18.80
2023-03-07T03:58:44.107Z,17.58
2023-03-07T04:01:14.013Z,23.23
2023-03-07T04:03:46.540Z,21.20
2023-03-07T04:08:46.604Z,20.40
2023-03-07T04:11:14.949Z,24.75
2023-03-07T04:13:43.762Z,21.67
2023-03-07T04:16:12.408Z,21.80
2023-03-07T04:18:41.001Z,18.23
2023-03-07T04:21:11.582Z,21.10
2023-03-07T04:23:40.460Z,21.35
2023-03-07T04:26:10.491Z,19.58
2023-03-07T04:28:44.912Z,19.42
2023-03-07T04:31:48.856Z,19.70
2023-03-07T04:34:17.647Z,20.52
2023-03-07T04:36:47.187Z,21.95
2023-03-07T04:39:15.496Z,26.50
2023-03-07T04:41:44.125Z,20.52
2023-03-07T04:44:21.095Z,20.95
2023-03-07T04:46:49.271Z,25.02
2023-03-07T04:49:18.220Z,24.00
2023-03-07T04:51:47.778Z,21.95
2023-03-07T04:54:18.317Z,21.85
2023-03-07T04:56:48.653Z,22.20
2023-03-07T04:59:16.895Z,20.85
2023-03-07T05:01:45.264Z,23.70
2023-03-07T05:04:13.524Z,26.85
2023-03-07T05:06:41.759Z,24.85
2023-03-07T05:09:12.084Z,22.75
2023-03-07T05:11:40.681Z,23.75
2023-03-07T05:14:09.748Z,23.40
2023-03-07T05:16:38.358Z,24.48
2023-03-07T05:19:07.167Z,25.65
2023-03-07T05:21:35.761Z,21.05
2023-03-07T05:24:04.666Z,27.25
2023-03-07T05:26:35.553Z,20.63
2023-03-07T05:29:04.516Z,26.85
2023-03-07T05:31:33.157Z,28.67
2023-03-07T05:34:01.656Z,20.90
2023-03-07T05:36:30.019Z,22.10
2023-03-07T05:38:58.700Z,31.23
2023-03-07T05:41:26.984Z,21.98
2023-03-07T05:43:58.206Z,27.13
2023-03-07T05:46:27.382Z,22.33
2023-03-07T05:48:55.808Z,24.80
2023-03-07T05:51:24.116Z,22.52
2023-03-07T05:53:52.476Z,24.13
2023-03-07T05:56:20.624Z,22.98
2023-03-07T05:58:48.911Z,22.42
2023-03-07T06:01:18.505Z,29.08
2023-03-07T06:03:47.515Z,23.92
2023-03-07T06:06:15.791Z,25.83
2023-03-07T06:08:44.705Z,27.15
2023-03-07T06:11:13.008Z,24.58
2023-03-07T06:13:41.195Z,21.70
2023-03-07T06:16:09.500Z,19.13
2023-03-07T06:18:41.887Z,20.70
2023-03-07T06:21:14.074Z,20.98
2023-03-07T06:23:45.573Z,22.67
2023-03-07T06:26:18.159Z,22.65
2023-03-07T06:28:50.223Z,19.50
2023-03-07T06:31:21.458Z,23.40
2023-03-07T06:33:51.726Z,20.13
2023-03-07T06:36:22.085Z,20.70
2023-03-07T06:38:57.250Z,19.17
2023-03-07T06:41:25.729Z,19.38
2023-03-07T06:43:56.311Z,20.45
2023-03-07T06:46:31.023Z,19.67
2023-03-07T06:49:02.778Z,23.45
2023-03-07T06:51:31.063Z,17.83
2023-03-07T06:53:59.768Z,19.75
2023-03-07T06:56:30.264Z,18.85
2023-03-07T06:58:59.483Z,21.00
2023-03-07T07:01:27.864Z,17.33
2023-03-07T07:03:58.537Z,21.85
2023-03-07T07:06:29.170Z,22.90
2023-03-07T07:08:58.856Z,17.73
2023-03-07T07:11:31.246Z,18.52
2023-03-07T07:14:00.377Z,18.70
2023-03-07T07:16:29.000Z,18.55
2023-03-07T07:18:58.198Z,20.73
2023-03-07T07:21:27.834Z,17.58
2023-03-07T07:23:58.015Z,18.40
2023-03-07T07:26:26.967Z,17.85
2023-03-07T07:28:56.361Z,15.85
2023-03-07T07:31:24.790Z,17.75
2023-03-07T07:33:53.345Z,15.98
2023-03-07T07:36:23.668Z,17.42
2023-03-07T07:38:54.142Z,17.48
2023-03-07T07:41:22.327Z,16.05
2023-03-07T07:43:55.010Z,17.80
2023-03-07T07:46:29.307Z,18.25
2023-03-07T07:48:57.860Z,15.95
2023-03-07T07:51:28.388Z,16.45
2023-03-07T07:53:58.202Z,15.38
2023-03-07T07:56:26.510Z,16.70
2023-03-07T07:58:54.714Z,20.05
2023-03-07T08:01:25.786Z,15.73
2023-03-07T08:03:54.117Z,17.38
2023-03-07T08:06:24.531Z,16.27
2023-03-07T08:08:52.978Z,19.35
2023-03-07T08:11:24.911Z,15.65
2023-03-07T08:13:53.423Z,18.25
2023-03-07T08:16:24.275Z,18.55
2023-03-07T08:18:55.705Z,16.45
2023-03-07T08:21:25.359Z,18.10
2023-03-07T08:23:55.226Z,14.55
2023-03-07T08:26:25.533Z,16.65
2023-03-07T08:28:53.756Z,15.05
2023-03-07T08:31:24.963Z,15.27
2023-03-07T08:33:53.899Z,16.38
2023-03-07T08:36:22.447Z,15.38
2023-03-07T08:38:52.582Z,18.05
2023-03-07T08:41:25.184Z,18.58
2023-03-07T08:46:27.559Z,15.45
2023-03-07T08:48:56.310Z,15.95
2023-03-07T08:51:24.773Z,18.83
2023-03-07T08:53:52.954Z,16.80
2023-03-07T08:56:23.125Z,14.48
2023-03-07T08:58:55.348Z,17.00
2023-03-07T09:01:24.071Z,14.50
2023-03-07T09:03:52.331Z,17.10
2023-03-07T09:06:22.291Z,15.73
2023-03-07T09:08:53.204Z,15.30
2023-03-07T09:11:21.924Z,16.60
2023-03-07T09:13:53.106Z,17.10
2023-03-07T09:16:26.030Z,16.67
2023-03-07T09:18:54.680Z,15.95
2023-03-07T09:21:23.825Z,16.58
2023-03-07T09:23:52.058Z,16.52
2023-03-07T09:26:20.437Z,18.38
2023-03-07T09:28:49.143Z,18.92
2023-03-07T09:31:20.912Z,15.25
2023-03-07T09:33:50.805Z,15.10
2023-03-07T09:36:19.590Z,15.23
2023-03-07T09:38:49.406Z,12.48
2023-03-07T09:41:42.829Z,15.77
2023-03-07T09:44:26.312Z,14.15
2023-03-07T09:47:55.558Z,15.50
2023-03-07T09:50:36.020Z,15.93
2023-03-07T09:53:06.418Z,15.07
2023-03-07T09:55:36.140Z,14.57
2023-03-07T09:58:16.075Z,16.48
2023-03-07T10:00:46.867Z,13.57
2023-03-07T10:03:33.833Z,16.50
2023-03-07T10:06:13.707Z,16.42
2023-03-07T10:08:42.437Z,15.77
2023-03-07T10:11:29.677Z,18.42
2023-03-07T10:14:18.100Z,15.15
2023-03-07T10:16:52.024Z,21.02
2023-03-07T10:19:36.086Z,19.15
2023-03-07T10:22:18.536Z,22.30
2023-03-07T10:25:14.916Z,17.05
2023-03-07T10:27:45.441Z,17.08
2023-03-07T10:30:17.907Z,18.35
2023-03-07T10:32:47.810Z,17.17
2023-03-07T10:35:21.717Z,18.63
2023-03-07T10:37:58.517Z,19.23
2023-03-07T10:40:31.017Z,17.08
2023-03-07T10:43:00.643Z,16.30
2023-03-07T10:45:32.871Z,15.35
2023-03-07T10:48:09.583Z,16.05
2023-03-07T10:50:46.052Z,16.55
2023-03-07T10:53:25.912Z,17.38
2023-03-07T10:56:09.430Z,16.05
2023-03-07T10:58:37.616Z,18.35
2023-03-07T11:01:21.260Z,14.93
2023-03-07T11:03:55.889Z,20.27
2023-03-07T11:06:39.025Z,17.50
2023-03-07T11:09:24.720Z,17.00
2023-03-07T11:11:57.721Z,15.43
2023-03-07T11:14:28.060Z,15.20
2023-03-07T11:16:59.170Z,17.02
2023-03-07T11:19:41.975Z,16.63
2023-03-07T11:22:28.097Z,15.20
2023-03-07T11:25:03.724Z,16.17
2023-03-07T11:27:39.866Z,17.50
2023-03-07T11:30:17.562Z,16.17
2023-03-07T11:33:00.179Z,15.57
2023-03-07T11:35:54.761Z,15.30
2023-03-07T11:38:37.121Z,16.20
2023-03-07T11:41:14.918Z,17.25
2023-03-07T11:43:55.171Z,16.83
2023-03-07T11:46:36.810Z,17.13
2023-03-07T11:49:24.179Z,18.13
2023-03-07T11:52:07.145Z,15.88
2023-03-07T11:54:43.735Z,16.88
2023-03-07T11:57:27.756Z,17.08
2023-03-07T12:00:19.351Z,16.63
2023-03-07T12:03:20.796Z,16.17
2023-03-07T12:06:06.882Z,15.70
2023-03-07T12:08:50.804Z,16.63
2023-03-07T12:11:42.022Z,15.75
2023-03-07T12:14:28.290Z,20.67
2023-03-07T12:17:13.787Z,17.90
2023-03-07T12:20:21.617Z,19.48
2023-03-07T12:23:06.157Z,19.40
2023-03-07T12:25:37.935Z,18.15
2023-03-07T12:28:24.042Z,17.77
2023-03-07T12:31:12.295Z,17.10
2023-03-07T12:34:00.362Z,21.67
2023-03-07T12:36:35.647Z,20.83
2023-03-07T12:39:15.778Z,17.20
2023-03-07T12:41:55.769Z,15.98
2023-03-07T12:44:38.214Z,16.50
2023-03-07T12:47:17.940Z,17.05
2023-03-07T12:49:55.885Z,16.55
2023-03-07T12:52:41.457Z,17.42
2023-03-07T12:55:22.918Z,18.83
2023-03-07T12:58:03.000Z,19.33
2023-03-07T13:00:40.429Z,15.85
2023-03-07T13:03:20.477Z,16.33
2023-03-07T13:05:49.652Z,15.50
2023-03-07T13:08:24.500Z,16.40
2023-03-07T13:10:53.004Z,15.70
2023-03-07T13:13:58.232Z,16.38
2023-03-07T13:16:48.034Z,17.33
2023-03-07T13:19:56.292Z,17.35
2023-03-07T13:23:13.094Z,16.60
2023-03-07T13:26:03.214Z,17.50
2023-03-07T13:28:51.523Z,18.35
2023-03-07T13:31:43.550Z,18.40
2023-03-07T13:34:48.846Z,17.90
2023-03-07T13:37:56.769Z,21.42
2023-03-07T13:40:52.732Z,18.48
2023-03-07T13:44:00.335Z,19.55
2023-03-07T13:47:02.855Z,16.35
2023-03-07T13:49:48.673Z,15.38
2023-03-07T13:52:45.122Z,14.80
2023-03-07T13:55:27.983Z,11.75
2023-03-07T14:00:37.577Z,11.73
2023-03-07T14:03:27.721Z,9.38
2023-03-07T14:06:01.608Z,7.30
2023-03-07T14:08:34.937Z,8.00
2023-03-07T14:11:04.073Z,7.28
2023-03-07T14:14:08.445Z,8.65
2023-03-07T14:16:52.079Z,8.23
2023-03-07T14:19:50.521Z,7.63
2023-03-07T14:22:37.717Z,7.85
2023-03-07T14:25:18.816Z,8.98
2023-03-07T14:27:57.279Z,8.38
2023-03-07T14:30:30.161Z,9.82
2023-03-07T14:32:59.031Z,9.43
2023-03-07T14:35:41.674Z,8.88
2023-03-07T14:38:21.996Z,9.70
2023-03-07T14:41:25.910Z,12.48
2023-03-07T14:44:06.329Z,11.50
2023-03-07T14:46:45.564Z,10.63
2023-03-07T14:49:29.156Z,11.10
2023-03-07T14:51:58.805Z,10.98
2023-03-07T14:54:33.824Z,11.52
2023-03-07T14:57:02.926Z,12.13
2023-03-07T14:59:31.123Z,10.35
2023-03-07T15:01:59.961Z,10.93
2023-03-07T15:04:30.509Z,12.00
2023-03-07T15:07:01.202Z,10.45
2023-03-07T15:09:32.098Z,10.95
2023-03-07T15:12:08.227Z,10.75
2023-03-07T15:14:45.117Z,9.38
2023-03-07T15:17:18.088Z,10.80
2023-03-07T15:19:51.540Z,9.25
2023-03-07T15:22:25.464Z,9.85
2023-03-07T15:24:57.194Z,9.80
2023-03-07T15:27:28.341Z,11.25
2023-03-07T15:29:57.602Z,11.25
2023-03-07T15:32:34.781Z,13.73
2023-03-07T15:35:13.546Z,13.65
2023-03-07T15:37:54.973Z,13.02
2023-03-07T15:40:32.057Z,12.48
2023-03-07T15:43:16.480Z,13.95
2023-03-07T15:45:59.835Z,13.32
2023-03-07T15:48:37.880Z,12.82
2023-03-07T15:51:12.773Z,12.55
2023-03-07T15:53:42.870Z,12.65
2023-03-07T15:56:27.282Z,11.30
2023-03-07T15:59:01.169Z,11.77
2023-03-07T16:01:29.685Z,14.32
2023-03-07T16:03:59.784Z,16.08
2023-03-07T16:06:42.051Z,18.02
2023-03-07T16:09:15.055Z,18.25
2023-03-07T16:11:46.133Z,16.38
2023-03-07T16:14:23.702Z,14.27
2023-03-07T16:16:52.848Z,14.10
2023-03-07T16:19:21.036Z,14.63
2023-03-07T16:21:49.282Z,12.65
2023-03-07T16:24:17.551Z,13.60
2023-03-07T16:26:48.669Z,15.50
2023-03-07T16:29:18.394Z,13.05
2023-03-07T16:31:47.130Z,11.63
2023-03-07T16:34:18.611Z,11.35
2023-03-07T16:36:47.305Z,12.75
2023-03-07T16:39:17.906Z,12.27
2023-03-07T16:41:50.073Z,12.02
2023-03-07T16:44:20.437Z,12.02
2023-03-07T16:46:57.658Z,14.00
2023-03-07T16:49:25.844Z,14.93
2023-03-07T16:52:05.011Z,14.05
2023-03-07T16:54:34.152Z,13.85
2023-03-07T16:57:04.673Z,14.43
2023-03-07T16:59:37.245Z,13.77
2023-03-07T17:04:42.378Z,14.73
2023-03-07T17:07:18.451Z,15.15
2023-03-07T17:09:47.389Z,14.40
2023-03-07T17:12:19.977Z,12.30
2023-03-07T17:17:20.466Z,13.77
2023-03-07T17:19:48.741Z,12.82
2023-03-07T17:22:18.809Z,12.25
2023-03-07T17:24:48.370Z,13.45
2023-03-07T17:27:19.230Z,12.85
2023-03-07T17:29:50.839Z,13.15
2023-03-07T17:32:19.635Z,12.45
2023-03-07T17:34:48.396Z,11.23
2023-03-07T17:37:16.753Z,12.45
2023-03-07T17:39:45.660Z,11.18
2023-03-07T17:42:14.000Z,11.60
2023-03-07T17:44:43.640Z,11.10
2023-03-07T17:47:11.845Z,11.90
2023-03-07T17:49:40.250Z,10.90
2023-03-07T17:52:08.957Z,11.85
2023-03-07T17:54:37.325Z,12.48
2023-03-07T17:57:05.682Z,14.18
2023-03-07T17:59:34.614Z,14.10
2023-03-07T18:02:05.683Z,15.55
2023-03-07T18:04:34.611Z,16.23
2023-03-07T18:07:03.263Z,16.52
2023-03-07T18:09:32.049Z,15.15
2023-03-07T18:12:01.133Z,15.30
2023-03-07T18:14:29.778Z,16.00
2023-03-07T18:16:58.156Z,16.65
2023-03-07T18:19:27.802Z,17.05
2023-03-07T18:21:56.290Z,18.73
2023-03-07T18:24:27.237Z,19.23
2023-03-07T18:26:56.910Z,19.30
2023-03-07T18:29:25.243Z,20.35
2023-03-07T18:31:54.075Z,19.00
2023-03-07T18:34:23.667Z,19.85
2023-03-07T18:36:54.280Z,18.90
2023-03-07T18:39:24.135Z,19.55
2023-03-07T18:41:52.547Z,21.05
2023-03-07T18:44:20.706Z,20.83
2023-03-07T18:46:49.266Z,25.08
2023-03-07T18:49:17.820Z,26.38
2023-03-07T18:51:48.216Z,26.05
2023-03-07T18:54:17.854Z,25.52
2023-03-07T18:56:47.029Z,26.67
2023-03-07T18:59:15.696Z,26.60
2023-03-07T19:01:44.019Z,24.90
2023-03-07T19:04:12.634Z,27.40
2023-03-07T19:06:44.990Z,26.60
2023-03-07T19:09:19.298Z,25.60
2023-03-07T19:11:48.806Z,23.25
2023-03-07T19:14:17.097Z,25.23
2023-03-07T19:16:45.386Z,27.55
2023-03-07T19:19:13.675Z,25.73
2023-03-07T19:21:42.128Z,27.83
2023-03-07T19:24:12.397Z,26.88
2023-03-07T19:26:44.876Z,27.25
2023-03-07T19:43:06.020Z,19.88
2023-03-07T19:45:34.538Z,17.30
2023-03-07T19:48:04.680Z,12.20
2023-03-07T19:50:32.844Z,13.68
2023-03-07T19:53:02.879Z,13.25
2023-03-07T19:55:33.727Z,14.35
2023-03-07T19:58:04.010Z,14.00
2023-03-07T20:00:34.714Z,11.82
2023-03-07T20:03:03.114Z,11.90
2023-03-07T20:05:31.442Z,14.50
2023-03-07T20:07:59.711Z,12.88
2023-03-07T20:10:31.297Z,14.00
2023-03-07T20:13:04.455Z,14.32
2023-03-07T20:15:33.364Z,12.40
2023-03-07T20:18:05.795Z,12.93
2023-03-07T20:20:36.622Z,9.65
2023-03-07T20:23:05.068Z,7.47
2023-03-07T20:25:33.561Z,6.00
2023-03-07T20:28:04.938Z,6.55
2023-03-07T20:30:36.411Z,4.70
2023-03-07T20:33:04.934Z,4.82
2023-03-07T20:35:33.272Z,5.30
2023-03-07T20:38:01.725Z,7.68
2023-03-07T20:40:30.062Z,5.68
2023-03-07T20:42:58.314Z,6.03
2023-03-07T20:45:27.985Z,6.68
2023-03-07T20:47:56.196Z,6.90
2023-03-07T20:50:24.613Z,7.28
2023-03-07T20:52:53.204Z,8.50
2023-03-07T20:55:21.613Z,11.13
2023-03-07T20:57:51.726Z,11.15
2023-03-07T21:00:24.962Z,11.43
2023-03-07T21:03:06.406Z,9.90
2023-03-07T21:05:41.292Z,9.93
2023-03-07T21:08:09.950Z,9.50
2023-03-07T21:10:38.402Z,8.13
2023-03-07T21:13:13.102Z,10.15
2023-03-07T21:15:44.436Z,9.98
2023-03-07T21:18:15.231Z,10.55
2023-03-07T21:20:44.264Z,9.43
2023-03-07T21:23:20.979Z,10.05
2023-03-07T21:25:51.663Z,8.85
2023-03-07T21:28:39.639Z,9.30
2023-03-07T21:31:15.770Z,9.80
2023-03-07T21:33:48.196Z,9.40
2023-03-07T21:36:20.564Z,8.63
2023-03-07T21:38:49.440Z,10.00
2023-03-07T21:41:21.971Z,10.00
2023-03-07T21:46:26.717Z,11.98
2023-03-07T21:48:59.329Z,12.00
2023-03-07T21:53:55.663Z,13.27
2023-03-07T21:56:24.573Z,13.07
2023-03-07T21:58:53.475Z,14.32
2023-03-07T22:01:25.148Z,12.70
2023-03-07T22:03:55.912Z,13.60
2023-03-07T22:06:24.790Z,13.48
2023-03-07T22:08:53.298Z,11.73
2023-03-07T22:11:21.858Z,13.60
2023-03-07T22:13:50.148Z,11.23
2023-03-07T22:16:22.382Z,10.90
2023-03-07T22:18:56.380Z,11.50
2023-03-07T22:21:26.402Z,11.10
2023-03-07T22:23:57.624Z,10.40
2023-03-07T22:26:26.438Z,9.82
2023-03-07T22:28:55.333Z,11.15
2023-03-07T22:31:23.968Z,10.10
2023-03-07T22:33:52.292Z,10.60
2023-03-07T22:36:22.288Z,10.40
2023-03-07T22:38:55.758Z,10.50
2023-03-07T22:41:25.377Z,10.20
2023-03-07T22:43:54.100Z,11.05
2023-03-07T22:46:22.786Z,10.07
2023-03-07T22:48:53.777Z,11.25
2023-03-07T22:51:25.328Z,11.70
2023-03-07T22:53:54.540Z,10.18
2023-03-07T22:56:24.865Z,11.00
2023-03-07T22:58:53.132Z,11.10
2023-03-07T23:01:23.554Z,11.20
2023-03-07T23:03:53.295Z,10.70
2023-03-07T23:06:24.528Z,9.90
2023-03-07T23:08:54.325Z,8.40
2023-03-07T23:11:25.370Z,8.40
2023-03-07T23:13:54.790Z,8.40
2023-03-07T23:16:25.339Z,8.18
2023-03-07T23:18:56.829Z,8.45
2023-03-07T23:21:29.043Z,8.55
2023-03-07T23:23:59.025Z,7.32
2023-03-07T23:26:29.899Z,8.02
2023-03-07T23:28:58.540Z,7.40
2023-03-07T23:31:29.466Z,8.18
2023-03-07T23:33:59.653Z,6.90
2023-03-07T23:36:31.725Z,8.13
2023-03-07T23:39:01.252Z,9.65
2023-03-07T23:41:32.075Z,8.55
2023-03-07T23:44:02.031Z,9.45
2023-03-07T23:46:30.871Z,9.30
2023-03-07T23:48:59.218Z,8.90
2023-03-07T23:51:28.806Z,10.05
2023-03-07T23:53:57.030Z,9.25
2023-03-07T23:56:25.282Z,9.35
2023-03-07T23:58:54.307Z,8.55
